Time;durP1;ratioP1;P1;durP2;ratioP2;P2;SDS_P1;SDS_P2;PMS_P1;PMS_P2;Temp;Humidity;BMP_temperature;BMP_pressure;BME280_temperature;BME280_humidity;BME280_pressure;Samples;Min_cycle;Max_cycle;Signal;HPM_P1;HPM_P2
2023/09/21 00:00:29;;;;;;;17.63;7.60;;;;;;;19.18;67.23;94811.31;4194186;28;20060;-74
2023/09/21 00:02:31;;;;;;;14.52;7.05;;;;;;;19.26;66.84;94810.25;4186038;28;20463;-73
2023/09/21 00:04:33;;;;;;;14.13;7.05;;;;;;;19.27;66.67;94808.41;4200589;28;20118;-74
2023/09/21 00:06:36;;;;;;;14.63;7.10;;;;;;;19.28;66.82;94818.84;4188020;28;20118;-76
2023/09/21 00:08:38;;;;;;;16.17;7.75;;;;;;;19.30;66.80;94815.97;4193638;28;20045;-76
2023/09/21 00:10:41;;;;;;;14.82;7.13;;;;;;;19.34;66.84;94823.31;4193029;28;20158;-74
2023/09/21 00:12:43;;;;;;;16.63;7.68;;;;;;;19.37;66.59;94819.41;4191379;28;20040;-75
2023/09/21 00:14:45;;;;;;;16.08;8.00;;;;;;;19.42;66.42;94819.59;4177267;28;20041;-74
2023/09/21 00:16:48;;;;;;;14.80;7.40;;;;;;;19.46;66.47;94820.81;4183519;28;20135;-74
2023/09/21 00:18:49;;;;;;;16.67;7.93;;;;;;;19.47;66.57;94825.09;4183878;28;20062;-74
2023/09/21 00:20:55;;;;;;;14.30;8.10;;;;;;;19.47;66.74;94825.09;4192704;28;20082;-76
2023/09/21 00:22:59;;;;;;;15.75;8.07;;;;;;;19.49;66.75;94823.06;4175153;28;20445;-74
2023/09/21 00:25:03;;;;;;;18.80;8.27;;;;;;;19.33;67.26;94828.84;4190092;28;20173;-74
2023/09/21 00:27:07;;;;;;;20.25;9.75;;;;;;;19.16;68.87;94831.94;4192507;28;20060;-73
2023/09/21 00:29:08;;;;;;;19.90;11.45;;;;;;;18.94;70.14;94834.03;4186204;28;20566;-75
2023/09/21 00:31:10;;;;;;;19.38;9.73;;;;;;;18.83;70.45;94843.44;4195584;28;20049;-75
2023/09/21 00:33:12;;;;;;;17.27;9.73;;;;;;;18.69;71.09;94841.00;4191776;28;20216;-75
2023/09/21 00:35:16;;;;;;;17.08;10.50;;;;;;;18.59;71.67;94847.53;4186510;28;20402;-73
2023/09/21 00:37:19;;;;;;;;;;;;;;;18.53;71.20;94852.84;4193679;28;20482;-76
2023/09/21 00:39:21;;;;;;;18.70;8.48;;;;;;;18.39;71.42;94858.16;4195535;28;19920;-74
2023/09/21 00:41:25;;;;;;;16.33;10.00;;;;;;;18.30;72.61;94850.59;4191078;28;20311;-73
2023/09/21 00:43:28;;;;;;;21.33;10.45;;;;;;;18.36;72.83;94852.44;4185697;28;20075;-74
2023/09/21 00:45:30;;;;;;;20.95;10.30;;;;;;;18.50;72.34;94855.88;4186512;28;20084;-74
2023/09/21 00:47:33;;;;;;;19.20;10.88;;;;;;;18.61;72.12;94855.28;4190101;28;20124;-73
2023/09/21 00:49:36;;;;;;;20.02;10.18;;;;;;;18.72;72.03;94861.81;4185094;28;20475;-73
2023/09/21 00:51:39;;;;;;;18.23;11.40;;;;;;;18.78;71.90;94861.84;4191803;28;20124;-73
2023/09/21 00:53:44;;;;;;;19.58;11.93;;;;;;;18.74;72.34;94862.44;4192427;28;20090;-76
2023/09/21 00:55:50;;;;;;;24.00;11.13;;;;;;;18.71;72.69;94842.41;4196608;28;20120;-75
2023/09/21 00:57:55;;;;;;;21.38;12.05;;;;;;;18.77;72.94;94840.78;4191186;28;20536;-74
2023/09/21 00:59:57;;;;;;;18.90;11.63;;;;;;;18.86;72.86;94842.22;4178200;28;20045;-73
2023/09/21 01:02:00;;;;;;;20.17;12.52;;;;;;;18.92;72.53;94833.44;4177576;28;20424;-73
2023/09/21 01:04:06;;;;;;;17.50;11.47;;;;;;;19.02;72.36;94835.66;4180249;28;20057;-75
2023/09/21 01:06:09;;;;;;;17.10;11.82;;;;;;;19.03;72.94;94822.16;4196583;28;20125;-75
2023/09/21 01:08:18;;;;;;;17.27;12.05;;;;;;;19.02;73.80;94825.84;4177512;28;20056;-74
2023/09/21 01:10:21;;;;;;;20.63;13.15;;;;;;;18.99;73.49;94820.13;4172789;28;20045;-75
2023/09/21 01:12:25;;;;;;;20.58;12.18;;;;;;;18.96;73.69;94832.00;4193640;28;20128;-76
2023/09/21 01:14:27;;;;;;;21.65;12.95;;;;;;;18.91;74.18;94828.34;4189442;28;20044;-74
2023/09/21 01:16:30;;;;;;;22.08;13.40;;;;;;;18.94;74.44;94822.63;4195373;28;20044;-76
2023/09/21 01:18:32;;;;;;;21.80;14.18;;;;;;;18.90;74.57;94816.09;4191282;28;20091;-74
2023/09/21 01:20:35;;;;;;;24.70;14.57;;;;;;;18.91;74.61;94817.72;4192207;28;20060;-74
2023/09/21 01:22:37;;;;;;;20.33;13.82;;;;;;;18.79;75.26;94810.38;4191623;28;20064;-74
2023/09/21 01:24:40;;;;;;;22.45;14.13;;;;;;;18.76;75.72;94810.78;4176155;28;20587;-75
2023/09/21 01:26:42;;;;;;;23.00;14.40;;;;;;;18.71;76.41;94807.91;4168758;28;20122;-73
2023/09/21 01:28:48;;;;;;;22.33;13.45;;;;;;;18.76;76.77;94807.31;4192908;28;20056;-75
2023/09/21 01:30:51;;;;;;;21.33;13.27;;;;;;;18.83;76.58;94805.50;4178126;28;20056;-76
2023/09/21 01:32:53;;;;;;;22.35;13.63;;;;;;;18.89;76.38;94803.84;4188075;28;20052;-76
2023/09/21 01:34:56;;;;;;;19.70;13.32;;;;;;;18.94;76.32;94806.69;4170706;28;20188;-74
2023/09/21 01:36:57;;;;;;;18.90;13.07;;;;;;;18.97;75.92;94806.25;4194075;28;20087;-75
2023/09/21 01:38:59;;;;;;;18.95;12.80;;;;;;;18.95;75.53;94803.00;4189390;28;20052;-76
2023/09/21 01:41:02;;;;;;;20.35;13.40;;;;;;;18.95;75.53;94798.53;4193837;28;20080;-76
2023/09/21 01:43:06;;;;;;;21.50;13.13;;;;;;;18.94;75.55;94798.72;4194590;28;20059;-74
2023/09/21 01:45:13;;;;;;;;;;;;;;;18.87;75.61;94785.47;4165232;28;20080;-76
2023/09/21 01:47:17;;;;;;;19.80;13.45;;;;;;;18.87;76.39;94790.78;4188888;28;19921;-75
2023/09/21 01:49:20;;;;;;;20.75;13.35;;;;;;;18.91;76.40;94785.88;4179686;28;20053;-74
2023/09/21 01:51:22;;;;;;;20.88;13.93;;;;;;;18.96;76.44;94786.06;4184473;28;20048;-73
2023/09/21 01:53:24;;;;;;;21.25;13.10;;;;;;;18.98;76.42;94790.13;4191507;28;20056;-76
2023/09/21 01:55:26;;;;;;;20.75;12.77;;;;;;;18.97;76.32;94774.41;4191892;28;20442;-74
2023/09/21 01:57:30;;;;;;;22.35;12.35;;;;;;;18.96;76.23;94776.25;4188437;28;20122;-75
2023/09/21 01:59:33;;;;;;;20.58;13.35;;;;;;;18.93;76.57;94773.19;4176454;28;20083;-76
2023/09/21 02:01:35;;;;;;;20.75;14.77;;;;;;;18.93;76.67;94765.22;4198057;28;20048;-77
2023/09/21 02:03:37;;;;;;;23.60;13.85;;;;;;;18.89;76.66;94770.16;4201441;28;20467;-78
2023/09/21 02:05:40;;;;;;;17.02;12.80;;;;;;;18.88;76.80;94757.09;4184449;28;20267;-74
2023/09/21 02:07:43;;;;;;;21.77;13.70;;;;;;;18.88;76.92;94759.75;4192286;28;20110;-77
2023/09/21 02:09:45;;;;;;;23.02;12.80;;;;;;;18.86;76.79;94751.16;4194342;28;20506;-75
2023/09/21 02:11:47;;;;;;;17.13;13.25;;;;;;;18.83;76.56;94747.91;4193292;28;20533;-75
2023/09/21 02:13:51;;;;;;;20.48;12.93;;;;;;;18.89;76.31;94745.47;4196645;28;20079;-75
2023/09/21 02:15:53;;;;;;;14.50;12.00;;;;;;;18.91;76.23;94735.44;4171152;28;20052;-74
2023/09/21 02:17:55;;;;;;;17.05;12.73;;;;;;;18.88;76.10;94734.00;4189348;28;20045;-75
2023/09/21 02:19:59;;;;;;;21.17;12.95;;;;;;;18.87;76.01;94731.59;4199748;28;20146;-74
2023/09/21 02:22:00;;;;;;;18.47;12.43;;;;;;;18.86;76.41;94730.75;4189553;28;20067;-74
2023/09/21 02:24:04;;;;;;;23.08;12.77;;;;;;;18.82;76.29;94738.31;4188741;28;20269;-74
2023/09/21 02:26:07;;;;;;;21.00;12.68;;;;;;;18.86;76.27;94735.25;4198004;28;20110;-74
2023/09/21 02:28:09;;;;;;;24.48;13.82;;;;;;;18.91;76.36;94744.22;4199035;28;20108;-74
2023/09/21 02:30:13;;;;;;;24.20;14.25;;;;;;;18.93;76.41;94744.81;4196982;28;20190;-74
2023/09/21 02:32:15;;;;;;;;;;;;;;;18.87;75.86;94753.63;4196955;28;20045;-76
2023/09/21 02:34:17;;;;;;;20.60;14.60;;;;;;;18.70;75.78;94755.06;4182367;28;19931;-74
2023/09/21 02:36:20;;;;;;;19.15;13.70;;;;;;;18.58;75.99;94758.38;4199256;28;20310;-75
2023/09/21 02:38:22;;;;;;;18.30;12.82;;;;;;;18.54;76.08;94766.91;4188830;28;20056;-76
2023/09/21 02:40:24;;;;;;;17.98;13.85;;;;;;;18.58;76.26;94752.22;4163628;28;20050;-74
2023/09/21 02:42:26;;;;;;;24.08;14.48;;;;;;;18.61;76.60;94754.47;4176566;28;20041;-72
2023/09/21 02:44:29;;;;;;;26.65;14.10;;;;;;;18.62;76.58;94756.91;4192494;28;20066;-73
2023/09/21 02:46:31;;;;;;;21.90;14.27;;;;;;;18.68;76.40;94754.47;4198475;28;20474;-74
2023/09/21 02:48:34;;;;;;;21.65;13.38;;;;;;;18.71;76.42;94749.53;4175821;28;20056;-75
2023/09/21 02:50:36;;;;;;;22.63;13.40;;;;;;;18.74;76.34;94749.13;4195894;28;20053;-74
2023/09/21 02:52:38;;;;;;;22.75;12.40;;;;;;;18.75;75.75;94752.59;4189908;28;20108;-74
2023/09/21 02:54:41;;;;;;;17.92;11.68;;;;;;;18.68;75.48;94747.31;4179348;28;20091;-75
2023/09/21 02:56:43;;;;;;;25.40;13.30;;;;;;;18.67;75.70;94748.34;4200091;28;20067;-75
2023/09/21 02:58:45;;;;;;;22.33;13.00;;;;;;;18.67;75.69;94750.16;4194280;28;20052;-75
2023/09/21 03:00:49;;;;;;;17.80;12.40;;;;;;;18.73;75.98;94752.78;4211801;28;20444;-76
2023/09/21 03:02:54;;;;;;;23.38;11.95;;;;;;;18.75;75.36;94755.25;4199373;28;20108;-72
2023/09/21 03:04:57;;;;;;;17.00;11.15;;;;;;;18.65;75.19;94761.00;4200278;28;20098;-73
2023/09/21 03:06:59;;;;;;;18.20;11.38;;;;;;;18.51;75.80;94772.66;4181335;28;20148;-74
2023/09/21 03:09:01;;;;;;;23.73;11.13;;;;;;;18.39;75.97;94757.38;4194280;28;20084;-76
2023/09/21 03:11:05;;;;;;;17.75;11.52;;;;;;;18.37;76.40;94763.91;4179923;28;20480;-75
2023/09/21 03:13:15;;;;;;;18.50;10.95;;;;;;;18.44;76.61;94767.34;4184933;28;20052;-75
2023/09/21 03:15:20;;;;;;;15.45;11.35;;;;;;;18.41;76.49;94768.59;4183668;28;20049;-75
2023/09/21 03:17:22;;;;;;;23.77;13.75;;;;;;;18.38;76.79;94770.81;4193286;28;20079;-73
2023/09/21 03:19:25;;;;;;;18.17;11.85;;;;;;;18.33;76.46;94768.78;4182927;28;20071;-75
2023/09/21 03:21:27;;;;;;;21.35;12.40;;;;;;;18.33;76.69;94779.41;4191738;28;20048;-75
2023/09/21 03:23:30;;;;;;;17.70;11.60;;;;;;;18.36;76.63;94781.63;4193836;28;20476;-78
2023/09/21 03:25:33;;;;;;;19.65;11.80;;;;;;;18.46;76.51;94783.88;4190072;28;20477;-75
2023/09/21 03:27:35;;;;;;;22.92;12.10;;;;;;;18.54;76.20;94780.19;4197686;28;20078;-75
2023/09/21 03:29:36;;;;;;;16.00;10.50;;;;;;;18.58;75.64;94776.09;4179636;28;21613;-74
2023/09/21 03:31:38;;;;;;;18.67;10.77;;;;;;;18.63;75.30;94769.16;4201656;28;20118;-75
2023/09/21 03:33:40;;;;;;;13.93;10.18;;;;;;;18.71;75.12;94773.41;4182808;28;20107;-76
2023/09/21 03:35:43;;;;;;;17.05;10.82;;;;;;;18.71;74.75;94765.47;4182005;28;20128;-75
2023/09/21 03:37:48;;;;;;;14.98;10.07;;;;;;;18.74;74.45;94772.22;4182886;28;20099;-76
2023/09/21 03:39:49;;;;;;;14.75;9.40;;;;;;;18.78;74.29;94768.97;4192222;28;20048;-74
2023/09/21 03:41:56;;;;;;;14.68;9.07;;;;;;;18.81;74.11;94770.38;4177475;28;20056;-75
2023/09/21 03:43:58;;;;;;;15.05;9.57;;;;;;;18.81;73.74;94763.22;4187821;28;20064;-75
2023/09/21 03:46:00;;;;;;;14.15;8.60;;;;;;;18.81;72.97;94763.22;4194009;28;20080;-76
2023/09/21 03:48:04;;;;;;;15.75;8.50;;;;;;;18.80;72.72;94763.44;4186449;28;20074;-75
2023/09/21 03:50:11;;;;;;;14.73;8.68;;;;;;;18.74;73.01;94767.72;4190227;28;20127;-75
2023/09/21 03:52:16;;;;;;;11.80;8.18;;;;;;;18.57;72.70;94769.97;4188858;28;20076;-73
2023/09/21 03:54:18;;;;;;;17.65;8.82;;;;;;;18.45;73.29;94765.50;4185317;28;20123;-75
2023/09/21 03:56:20;;;;;;;32.20;23.58;;;;;;;18.37;75.64;94764.72;4190616;28;20170;-75
2023/09/21 03:58:21;;;;;;;33.70;26.52;;;;;;;18.32;76.35;94759.19;4194736;28;20045;-75
2023/09/21 04:00:29;;;;;;;29.88;22.55;;;;;;;18.33;76.30;94757.38;4187752;28;20041;-74
2023/09/21 04:02:31;;;;;;;19.10;14.88;;;;;;;18.31;75.93;94764.72;4194621;28;20405;-74
2023/09/21 04:04:33;;;;;;;18.15;11.30;;;;;;;18.23;74.96;94757.78;4196300;28;20227;-74
2023/09/21 04:06:35;;;;;;;22.38;13.23;;;;;;;18.29;75.47;94764.91;4194291;28;20052;-75
2023/09/21 04:08:37;;;;;;;37.47;28.83;;;;;;;18.36;75.82;94764.91;4175985;28;20429;-77
2023/09/21 04:10:41;;;;;;;41.55;35.03;;;;;;;18.49;75.95;94762.25;4178650;28;20457;-76
2023/09/21 04:12:44;;;;;;;41.60;34.92;;;;;;;18.57;76.11;94769.97;4195400;28;20052;-77
2023/09/21 04:14:46;;;;;;;35.63;31.63;;;;;;;18.63;75.92;94768.34;4190060;28;20099;-77
2023/09/21 04:16:48;;;;;;;32.95;26.98;;;;;;;18.62;75.77;94772.81;4196543;28;20080;-76
2023/09/21 04:18:51;;;;;;;33.53;26.50;;;;;;;18.61;75.87;94781.81;4191210;28;20040;-76
2023/09/21 04:20:52;;;;;;;35.20;26.98;;;;;;;18.61;76.01;94771.19;4192953;28;20157;-76
2023/09/21 04:23:11;;;;;;;33.30;21.08;;;;;;;18.70;75.75;94779.75;4186664;28;20503;-77
2023/09/21 04:25:14;;;;;;;27.70;20.90;;;;;;;18.74;75.44;94780.16;4187280;28;20056;-75
2023/09/21 04:27:16;;;;;;;28.35;19.77;;;;;;;18.79;75.40;94775.88;4188752;28;20116;-76
2023/09/21 04:29:18;;;;;;;26.33;20.70;;;;;;;18.80;75.14;94785.50;4193248;28;20048;-75
2023/09/21 04:31:19;;;;;;;24.98;17.20;;;;;;;18.82;75.06;94778.13;4190231;28;20329;-77
2023/09/21 04:33:22;;;;;;;21.05;16.65;;;;;;;18.85;74.88;94776.91;4200065;28;20193;-77
2023/09/21 04:35:25;;;;;;;24.65;16.42;;;;;;;18.87;74.64;94769.53;4210088;28;20129;-76
2023/09/21 04:37:26;;;;;;;28.70;17.65;;;;;;;18.85;74.70;94770.78;4180862;28;20053;-76
2023/09/21 04:39:28;;;;;;;24.15;15.82;;;;;;;18.84;74.76;94761.97;4180439;28;20049;-76
2023/09/21 04:41:30;;;;;;;21.98;16.05;;;;;;;18.86;74.98;94764.44;4181317;28;20049;-77
2023/09/21 04:43:32;;;;;;;20.58;15.40;;;;;;;18.87;74.83;94758.13;4182585;28;20052;-75
2023/09/21 04:45:35;;;;;;;31.35;16.48;;;;;;;18.89;74.83;94761.38;4185106;28;20040;-75
2023/09/21 04:47:39;;;;;;;27.80;15.48;;;;;;;18.90;74.69;94763.00;4193371;28;20066;-74
2023/09/21 04:49:41;;;;;;;27.98;15.80;;;;;;;18.90;74.60;94766.47;4176576;28;20139;-77
2023/09/21 04:51:43;;;;;;;23.13;14.68;;;;;;;18.88;74.43;94763.19;4179555;28;20116;-77
2023/09/21 04:53:45;;;;;;;25.55;14.23;;;;;;;18.91;74.65;94770.75;4195670;28;20438;-76
2023/09/21 04:55:48;;;;;;;22.17;14.63;;;;;;;18.95;74.44;94771.13;4199704;28;20162;-77
2023/09/21 04:57:51;;;;;;;27.10;14.90;;;;;;;18.98;74.36;94776.84;4159839;28;20413;-76
2023/09/21 04:59:54;;;;;;;26.58;15.45;;;;;;;19.01;74.35;94775.63;4190011;28;20044;-75
2023/09/21 05:01:55;;;;;;;25.65;16.23;;;;;;;19.02;73.92;94779.91;4195767;28;20072;-76
2023/09/21 05:03:57;;;;;;;25.42;14.40;;;;;;;19.07;74.27;94773.97;4198614;28;20048;-76
2023/09/21 05:05:59;;;;;;;26.05;15.00;;;;;;;19.07;74.25;94777.44;4195856;28;20389;-76
2023/09/21 05:08:03;;;;;;;22.20;14.27;;;;;;;19.11;74.06;94778.66;4195773;28;20048;-78
2023/09/21 05:10:07;;;;;;;26.83;14.95;;;;;;;19.16;73.75;94778.81;4198213;28;20185;-75
2023/09/21 05:12:09;;;;;;;;;;;;;;;19.14;73.77;94778.22;4195403;28;20048;-75
2023/09/21 05:14:12;;;;;;;27.15;16.80;;;;;;;18.71;75.88;94786.69;4186237;28;20015;-76
2023/09/21 05:16:13;;;;;;;27.55;18.02;;;;;;;18.51;76.51;94786.72;4191314;28;20099;-78
2023/09/21 05:18:16;;;;;;;25.15;15.85;;;;;;;18.29;77.80;94793.28;4198194;28;20076;-77
2023/09/21 05:20:21;;;;;;;20.63;16.05;;;;;;;18.21;78.58;94787.13;4203373;28;20131;-74
2023/09/21 05:22:23;;;;;;;28.02;17.02;;;;;;;18.13;78.40;94786.53;4194609;28;20066;-76
2023/09/21 05:24:25;;;;;;;28.75;17.05;;;;;;;18.12;78.78;94785.72;4195351;28;20075;-75
2023/09/21 05:26:27;;;;;;;41.65;19.48;;;;;;;18.11;79.64;94784.09;4194943;28;20415;-74
2023/09/21 05:28:29;;;;;;;25.95;17.35;;;;;;;18.19;79.07;94777.75;4191205;28;20049;-75
2023/09/21 05:30:31;;;;;;;26.15;17.17;;;;;;;18.37;79.13;94775.31;4195163;28;20159;-75
2023/09/21 05:32:33;;;;;;;33.90;18.02;;;;;;;18.58;78.68;94778.75;4183738;28;20045;-76
2023/09/21 05:34:38;;;;;;;26.98;16.88;;;;;;;18.71;77.79;94760.16;4195690;28;20040;-77
2023/09/21 05:36:40;;;;;;;29.70;16.20;;;;;;;18.77;76.91;94769.13;4196142;28;20044;-76
2023/09/21 05:38:42;;;;;;;28.58;16.02;;;;;;;18.86;77.12;94767.91;4191722;28;20060;-76
2023/09/21 05:40:44;;;;;;;29.75;16.20;;;;;;;18.95;76.63;94768.47;4186398;28;20044;-77
2023/09/21 05:42:47;;;;;;;23.92;16.58;;;;;;;19.03;76.11;94763.75;4195344;28;20082;-78
2023/09/21 05:44:50;;;;;;;32.80;16.70;;;;;;;19.11;75.02;94770.69;4187146;28;20124;-76
2023/09/21 05:46:52;;;;;;;24.23;15.52;;;;;;;19.18;74.92;94770.66;4193716;28;20135;-77
2023/09/21 05:48:54;;;;;;;27.88;17.88;;;;;;;19.24;74.34;94765.31;4169382;28;20574;-76
2023/09/21 05:50:56;;;;;;;27.35;15.32;;;;;;;19.40;74.23;94774.66;4190137;28;20110;-76
2023/09/21 05:52:59;;;;;;;25.08;16.67;;;;;;;19.51;73.55;94767.03;4189229;28;20102;-76
2023/09/21 05:55:02;;;;;;;21.45;15.38;;;;;;;19.53;72.71;94768.47;4176490;28;20392;-74
2023/09/21 05:57:04;;;;;;;28.02;15.60;;;;;;;19.46;72.63;94772.97;4172588;28;20444;-75
2023/09/21 05:59:07;;;;;;;26.23;15.95;;;;;;;19.30;73.00;94779.59;4194966;28;20553;-76
2023/09/21 06:01:08;;;;;;;32.22;16.50;;;;;;;19.22;72.91;94771.88;4196312;28;20080;-76
2023/09/21 06:03:11;;;;;;;27.05;15.32;;;;;;;19.18;73.35;94776.78;4197211;28;20129;-75
2023/09/21 06:05:13;;;;;;;25.20;15.05;;;;;;;19.15;73.19;94781.72;4193477;28;20106;-79
2023/09/21 06:07:15;;;;;;;29.52;15.35;;;;;;;19.21;72.95;94787.00;4171263;28;20140;-74
2023/09/21 06:09:20;;;;;;;23.75;17.60;;;;;;;19.31;72.87;94788.38;4200151;28;20139;-74
2023/09/21 06:11:23;;;;;;;25.08;15.15;;;;;;;19.37;72.88;94796.31;4202892;28;20052;-76
2023/09/21 06:13:25;;;;;;;30.17;15.33;;;;;;;19.43;72.89;94784.03;4199074;28;20054;-77
2023/09/21 06:15:26;;;;;;;23.85;15.48;;;;;;;19.47;72.96;94793.22;4183750;28;20111;-76
2023/09/21 06:17:28;;;;;;;24.23;15.32;;;;;;;19.55;72.87;94790.31;4180616;28;20057;-77
2023/09/21 06:19:30;;;;;;;26.35;16.20;;;;;;;19.52;73.02;94795.25;4197756;28;20087;-75
2023/09/21 06:21:35;;;;;;;31.60;16.25;;;;;;;19.54;72.59;94799.31;4192607;28;20064;-73
2023/09/21 06:23:37;;;;;;;36.03;16.00;;;;;;;19.54;72.67;94785.22;4190741;28;20071;-76
2023/09/21 06:25:39;;;;;;;30.52;16.15;;;;;;;19.48;72.67;94792.19;4197171;28;20178;-76
2023/09/21 06:27:42;;;;;;;33.53;16.40;;;;;;;19.48;72.43;94786.88;4198736;28;20444;-77
2023/09/21 06:29:44;;;;;;;35.55;15.63;;;;;;;19.46;72.67;94783.59;4201106;28;20610;-76
2023/09/21 06:31:48;;;;;;;27.15;16.13;;;;;;;19.52;72.79;94785.41;4202743;28;20456;-78
2023/09/21 06:34:10;;;;;;;28.77;15.57;;;;;;;19.62;72.53;94782.31;4196013;28;20130;-76
2023/09/21 06:36:18;;;;;;;29.85;14.85;;;;;;;19.60;72.25;94781.72;4198738;28;20197;-78
2023/09/21 06:38:20;;;;;;;26.08;15.15;;;;;;;19.64;72.31;94777.59;4185730;28;20503;-77
2023/09/21 06:40:23;;;;;;;23.92;14.90;;;;;;;19.79;72.05;94780.81;4192564;28;20052;-76
2023/09/21 06:42:25;;;;;;;29.85;14.93;;;;;;;19.92;71.49;94777.25;4192864;28;20056;-75
2023/09/21 06:44:29;;;;;;;30.48;15.60;;;;;;;20.04;71.09;94783.47;4181914;28;20140;-75
2023/09/21 06:46:38;;;;;;;19.77;14.13;;;;;;;20.05;70.41;94785.13;4187491;27;20793;-70
2023/09/21 06:48:43;;;;;;;24.83;15.73;;;;;;;20.10;69.98;94783.66;4181928;28;20578;-69
2023/09/21 06:50:45;;;;;;;30.58;15.82;;;;;;;20.13;69.89;94780.56;4181034;28;20049;-70
2023/09/21 06:52:51;;;;;;;31.13;16.00;;;;;;;20.12;70.12;94786.94;4181408;28;20044;-70
2023/09/21 06:54:54;;;;;;;;;;;;;;;20.09;70.36;94782.88;4176690;28;20053;-71
2023/09/21 06:57:03;;;;;;;25.33;15.43;;;;;;;20.05;70.48;94776.34;4174208;28;19928;-68
2023/09/21 06:59:11;;;;;;;29.48;15.48;;;;;;;20.13;70.44;94777.91;4174041;28;20048;-69
2023/09/21 07:01:14;;;;;;;23.58;15.32;;;;;;;20.18;69.96;94778.09;4174765;28;20053;-69
2023/09/21 07:03:18;;;;;;;26.95;15.75;;;;;;;20.23;69.86;94780.91;4168406;28;20466;-70
2023/09/21 07:05:23;;;;;;;23.20;15.02;;;;;;;20.33;69.62;94775.13;4173426;28;20056;-70
2023/09/21 07:07:25;;;;;;;26.83;14.27;;;;;;;20.37;69.03;94778.94;4167083;28;20081;-69
2023/09/21 07:09:27;;;;;;;28.80;15.07;;;;;;;20.39;68.45;94772.38;4169997;28;20121;-72
2023/09/21 07:11:29;;;;;;;26.50;13.93;;;;;;;20.31;67.89;94774.50;4173274;28;20045;-71
2023/09/21 07:13:32;;;;;;;25.27;13.93;;;;;;;20.45;67.42;94781.31;4173848;28;20052;-70
2023/09/21 07:15:34;;;;;;;24.38;12.32;;;;;;;20.57;66.42;94781.44;4162300;28;20120;-71
2023/09/21 07:17:36;;;;;;;22.30;12.40;;;;;;;20.63;65.66;94788.59;4172964;28;20053;-71
2023/09/21 07:19:39;;;;;;;27.00;12.38;;;;;;;20.71;65.46;94788.28;4175602;28;20128;-71
2023/09/21 07:21:40;;;;;;;20.40;12.52;;;;;;;20.80;65.14;94783.47;4169270;28;20080;-69
2023/09/21 07:23:42;;;;;;;25.95;12.75;;;;;;;20.89;65.04;94784.00;4169571;28;20083;-69
2023/09/21 07:25:44;;;;;;;26.85;13.13;;;;;;;20.95;64.56;94788.44;4176452;28;20818;-70
2023/09/21 07:27:46;;;;;;;20.40;12.43;;;;;;;21.00;64.52;94784.09;4174921;28;20087;-70
2023/09/21 07:29:49;;;;;;;25.23;13.13;;;;;;;20.99;64.27;94787.81;4188735;28;20049;-70
2023/09/21 07:31:51;;;;;;;25.15;12.70;;;;;;;21.06;63.48;94790.41;4170984;28;20049;-71
2023/09/21 07:33:56;;;;;;;23.77;12.88;;;;;;;20.99;63.52;94790.47;4163032;28;20133;-69
2023/09/21 07:35:58;;;;;;;26.02;12.93;;;;;;;20.93;63.28;94793.19;4175401;28;20488;-71
2023/09/21 07:38:00;;;;;;;23.35;11.43;;;;;;;20.97;63.25;94792.53;4173980;28;20700;-70
2023/09/21 07:40:06;;;;;;;22.00;11.23;;;;;;;20.92;63.19;94792.38;4175880;28;20061;-72
2023/09/21 07:42:10;;;;;;;26.30;12.35;;;;;;;20.85;63.31;94796.97;4174100;28;20056;-71
2023/09/21 07:44:16;;;;;;;21.85;11.85;;;;;;;20.88;63.37;94799.19;4172334;28;20049;-74
2023/09/21 07:46:20;;;;;;;23.38;12.23;;;;;;;21.05;63.38;94802.06;4167037;28;20091;-74
2023/09/21 07:48:23;;;;;;;26.92;12.40;;;;;;;21.17;62.95;94800.31;4159362;28;20125;-72
2023/09/21 07:50:27;;;;;;;22.42;12.25;;;;;;;21.13;62.45;94796.47;4175704;28;20080;-71
2023/09/21 07:52:29;;;;;;;;;;;;;;;21.19;62.77;94797.44;4180158;28;20056;-73
2023/09/21 07:54:31;;;;;;;21.98;11.48;;;;;;;21.07;62.53;94795.47;4176048;28;19922;-70
2023/09/21 07:56:36;;;;;;;22.55;12.80;;;;;;;21.00;62.61;94796.59;4178976;28;20136;-70
2023/09/21 07:58:38;;;;;;;25.63;11.80;;;;;;;21.11;62.81;94793.19;4167481;28;20049;-70
2023/09/21 08:00:40;;;;;;;24.45;11.25;;;;;;;21.24;62.81;94785.06;4164790;28;20045;-70
2023/09/21 08:02:44;;;;;;;21.27;11.15;;;;;;;21.18;61.52;94785.13;4172116;28;20048;-69
2023/09/21 08:04:47;;;;;;;23.33;10.70;;;;;;;21.23;61.75;94786.09;4164319;28;20096;-72
2023/09/21 08:06:49;;;;;;;21.40;10.80;;;;;;;21.34;62.04;94781.03;4164670;28;20136;-74
2023/09/21 08:08:54;;;;;;;16.90;9.98;;;;;;;21.44;61.50;94782.16;4170407;28;20761;-71
2023/09/21 08:10:56;;;;;;;23.70;9.18;;;;;;;21.51;61.16;94779.44;4172062;28;20052;-70
2023/09/21 08:12:58;;;;;;;17.27;10.10;;;;;;;21.54;60.63;94781.66;4163643;28;20079;-70
2023/09/21 08:15:00;;;;;;;18.23;9.07;;;;;;;21.63;60.84;94779.47;4173457;28;20087;-71
2023/09/21 08:17:03;;;;;;;25.33;11.32;;;;;;;21.74;60.80;94786.69;4156369;28;20054;-70
2023/09/21 08:19:06;;;;;;;19.98;9.45;;;;;;;21.81;60.02;94782.09;4161877;28;20056;-70
2023/09/21 08:21:09;;;;;;;18.17;9.70;;;;;;;21.82;59.44;94786.38;4155091;28;20053;-70
2023/09/21 08:23:14;;;;;;;14.75;8.85;;;;;;;21.86;60.20;94786.75;4165178;28;20091;-70
2023/09/21 08:25:16;;;;;;;17.88;8.73;;;;;;;21.91;60.12;94792.22;4166130;28;20104;-70
2023/09/21 08:27:18;;;;;;;18.55;9.45;;;;;;;21.93;60.04;94795.47;4164426;28;20045;-71
2023/09/21 08:29:21;;;;;;;16.65;8.55;;;;;;;21.98;59.81;94792.91;4165023;28;20046;-71
2023/09/21 08:31:23;;;;;;;;;;;;;;;22.01;59.71;94792.47;4178116;28;20439;-70
2023/09/21 08:33:25;;;;;;;17.08;8.75;;;;;;;22.03;59.22;94795.72;4164226;28;19960;-70
2023/09/21 08:35:29;;;;;;;19.02;9.45;;;;;;;21.94;58.16;94794.44;4160771;28;20049;-69
2023/09/21 08:37:31;;;;;;;18.13;8.80;;;;;;;21.90;58.14;94801.28;4167640;28;20132;-70
2023/09/21 08:39:34;;;;;;;15.82;8.82;;;;;;;21.89;58.35;94802.28;4174587;28;20119;-71
2023/09/21 08:41:42;;;;;;;16.33;9.63;;;;;;;21.83;58.58;94797.84;4175630;28;20053;-72
2023/09/21 08:43:44;;;;;;;18.40;9.00;;;;;;;21.88;59.34;94800.69;4176330;28;20061;-71
2023/09/21 08:45:47;;;;;;;21.55;9.57;;;;;;;21.92;59.29;94790.34;4174892;28;20157;-71
2023/09/21 08:47:51;;;;;;;16.83;8.95;;;;;;;21.96;59.68;94800.38;4153882;28;20346;-72
2023/09/21 08:49:54;;;;;;;19.88;9.35;;;;;;;21.99;59.45;94794.56;4162906;28;20053;-71
2023/09/21 08:51:58;;;;;;;19.70;9.15;;;;;;;22.03;59.53;94790.41;4162932;28;20587;-71
2023/09/21 08:54:02;;;;;;;16.63;9.23;;;;;;;22.05;59.59;94796.31;4162218;28;20056;-71
2023/09/21 08:56:04;;;;;;;18.13;9.88;;;;;;;22.08;59.81;94790.50;4157056;28;20072;-71
2023/09/21 08:58:09;;;;;;;14.63;9.07;;;;;;;22.11;59.82;94791.91;4165776;28;20468;-73
2023/09/21 09:00:15;;;;;;;19.92;9.50;;;;;;;22.12;59.49;94788.22;4159182;28;20133;-75
2023/09/21 09:02:17;;;;;;;18.60;8.98;;;;;;;22.16;59.63;94793.91;4158928;28;20052;-71
2023/09/21 09:04:20;;;;;;;21.05;8.93;;;;;;;22.14;59.19;94786.13;4157733;28;20066;-73
2023/09/21 09:06:23;;;;;;;17.40;10.05;;;;;;;22.06;59.52;94786.47;4158131;28;20056;-72
2023/09/21 09:08:26;;;;;;;26.20;10.07;;;;;;;22.03;59.77;94793.06;4154585;28;20057;-72
2023/09/21 09:10:29;;;;;;;15.68;9.60;;;;;;;22.04;59.68;94789.34;4162192;28;20408;-73
2023/09/21 09:12:32;;;;;;;19.50;10.40;;;;;;;22.08;60.81;94789.72;4163326;28;20140;-71
2023/09/21 09:14:35;;;;;;;15.10;8.90;;;;;;;22.12;61.13;94784.75;4161919;28;20049;-70
2023/09/21 09:16:37;;;;;;;18.42;8.70;;;;;;;22.16;60.39;94788.59;4162804;28;20656;-70
2023/09/21 09:18:39;;;;;;;16.65;8.57;;;;;;;22.19;60.18;94788.09;4161910;28;20049;-69
2023/09/21 09:20:45;;;;;;;20.75;10.05;;;;;;;22.25;59.69;94779.22;4158146;28;20046;-70
2023/09/21 09:22:51;;;;;;;16.17;9.15;;;;;;;22.29;59.13;94781.19;4150181;28;20547;-69
2023/09/21 09:24:53;;;;;;;24.13;9.30;;;;;;;22.35;58.43;94789.31;4164142;28;20049;-71
2023/09/21 09:26:57;;;;;;;17.23;9.73;;;;;;;22.39;58.29;94785.97;4174500;28;20049;-71
2023/09/21 09:29:12;;;;;;;16.17;9.13;;;;;;;22.42;58.65;94785.50;4166830;28;20550;-71